sensor_id;sensor_type;location;lat;lon;timestamp;P1;durP1;ratioP1;P2;durP2;ratioP2
72201;SDS011;60105;54.956;73.412;2023-03-21T00:04:53;9.93;;;4.67;;
72201;SDS011;60105;54.956;73.412;2023-03-21T00:07:54;9.32;;;5.75;;
72201;SDS011;60105;54.956;73.412;2023-03-21T00:11:00;8.20;;;5.63;;
72201;SDS011;60105;54.956;73.412;2023-03-21T00:14:02;9.35;;;5.50;;
72201;SDS011;60105;54.956;73.412;2023-03-21T00:17:04;12.30;;;5.78;;
72201;SDS011;60105;54.956;73.412;2023-03-21T00:20:05;13.52;;;5.55;;
72201;SDS011;60105;54.956;73.412;2023-03-21T00:23:11;14.70;;;5.33;;
72201;SDS011;60105;54.956;73.412;2023-03-21T00:26:50;7.78;;;5.13;;
72201;SDS011;60105;54.956;73.412;2023-03-21T00:29:52;11.23;;;5.65;;
72201;SDS011;60105;54.956;73.412;2023-03-21T00:32:54;10.83;;;6.20;;
72201;SDS011;60105;54.956;73.412;2023-03-21T00:36:06;14.50;;;5.85;;
72201;SDS011;60105;54.956;73.412;2023-03-21T00:39:08;13.57;;;6.55;;
72201;SDS011;60105;54.956;73.412;2023-03-21T00:42:09;11.43;;;6.30;;
72201;SDS011;60105;54.956;73.412;2023-03-21T00:45:10;18.77;;;6.32;;
72201;SDS011;60105;54.956;73.412;2023-03-21T00:48:12;14.30;;;6.90;;
72201;SDS011;60105;54.956;73.412;2023-03-21T00:51:50;21.73;;;8.10;;
72201;SDS011;60105;54.956;73.412;2023-03-21T00:54:51;14.25;;;7.28;;
72201;SDS011;60105;54.956;73.412;2023-03-21T00:57:53;16.33;;;8.63;;
72201;SDS011;60105;54.956;73.412;2023-03-21T01:00:54;19.92;;;9.82;;
72201;SDS011;60105;54.956;73.412;2023-03-21T01:03:57;25.83;;;9.10;;
72201;SDS011;60105;54.956;73.412;2023-03-21T01:07:05;21.95;;;9.10;;
72201;SDS011;60105;54.956;73.412;2023-03-21T01:10:07;23.58;;;9.98;;
72201;SDS011;60105;54.956;73.412;2023-03-21T01:13:11;17.08;;;8.25;;
72201;SDS011;60105;54.956;73.412;2023-03-21T01:16:19;18.60;;;9.93;;
72201;SDS011;60105;54.956;73.412;2023-03-21T01:19:30;18.80;;;10.03;;
72201;SDS011;60105;54.956;73.412;2023-03-21T01:22:32;24.40;;;11.23;;
72201;SDS011;60105;54.956;73.412;2023-03-21T01:25:33;20.85;;;10.48;;
72201;SDS011;60105;54.956;73.412;2023-03-21T01:28:35;26.60;;;11.60;;
72201;SDS011;60105;54.956;73.412;2023-03-21T01:34:51;19.10;;;11.48;;
72201;SDS011;60105;54.956;73.412;2023-03-21T01:37:55;27.37;;;10.17;;
72201;SDS011;60105;54.956;73.412;2023-03-21T01:40:57;19.02;;;11.25;;
72201;SDS011;60105;54.956;73.412;2023-03-21T01:44:05;30.90;;;14.73;;
72201;SDS011;60105;54.956;73.412;2023-03-21T01:47:19;33.07;;;12.87;;
72201;SDS011;60105;54.956;73.412;2023-03-21T01:50:21;36.65;;;14.60;;
72201;SDS011;60105;54.956;73.412;2023-03-21T01:53:45;29.57;;;13.40;;
72201;SDS011;60105;54.956;73.412;2023-03-21T01:59:54;31.85;;;13.52;;
72201;SDS011;60105;54.956;73.412;2023-03-21T02:03:28;36.58;;;13.07;;
72201;SDS011;60105;54.956;73.412;2023-03-21T02:06:56;28.70;;;9.90;;
72201;SDS011;60105;54.956;73.412;2023-03-21T02:10:13;21.75;;;10.38;;
72201;SDS011;60105;54.956;73.412;2023-03-21T02:13:29;24.87;;;13.27;;
72201;SDS011;60105;54.956;73.412;2023-03-21T02:16:44;24.58;;;13.05;;
72201;SDS011;60105;54.956;73.412;2023-03-21T02:23:39;32.47;;;13.65;;
72201;SDS011;60105;54.956;73.412;2023-03-21T02:27:05;38.30;;;14.00;;
72201;SDS011;60105;54.956;73.412;2023-03-21T02:34:05;28.57;;;14.23;;
72201;SDS011;60105;54.956;73.412;2023-03-21T02:40:33;18.45;;;9.02;;
72201;SDS011;60105;54.956;73.412;2023-03-21T02:43:45;15.85;;;9.88;;
72201;SDS011;60105;54.956;73.412;2023-03-21T02:47:13;24.80;;;11.47;;
72201;SDS011;60105;54.956;73.412;2023-03-21T02:50:44;28.30;;;11.18;;
72201;SDS011;60105;54.956;73.412;2023-03-21T02:53:54;29.20;;;12.00;;
72201;SDS011;60105;54.956;73.412;2023-03-21T02:57:01;15.55;;;9.52;;
72201;SDS011;60105;54.956;73.412;2023-03-21T03:00:04;24.75;;;12.45;;
72201;SDS011;60105;54.956;73.412;2023-03-21T03:03:12;31.52;;;12.27;;
72201;SDS011;60105;54.956;73.412;2023-03-21T03:07:00;27.05;;;12.02;;
72201;SDS011;60105;54.956;73.412;2023-03-21T03:13:52;31.88;;;12.27;;
72201;SDS011;60105;54.956;73.412;2023-03-21T03:24:02;47.90;;;14.13;;
72201;SDS011;60105;54.956;73.412;2023-03-21T03:27:18;39.15;;;14.13;;
72201;SDS011;60105;54.956;73.412;2023-03-21T03:30:35;33.15;;;12.48;;
72201;SDS011;60105;54.956;73.412;2023-03-21T03:33:39;44.72;;;16.10;;
72201;SDS011;60105;54.956;73.412;2023-03-21T03:36:56;28.30;;;13.07;;
72201;SDS011;60105;54.956;73.412;2023-03-21T03:43:17;35.20;;;13.53;;
72201;SDS011;60105;54.956;73.412;2023-03-21T03:46:29;50.75;;;15.50;;
72201;SDS011;60105;54.956;73.412;2023-03-21T03:49:43;54.30;;;15.67;;
72201;SDS011;60105;54.956;73.412;2023-03-21T03:52:58;41.08;;;15.30;;
72201;SDS011;60105;54.956;73.412;2023-03-21T03:56:50;43.33;;;14.93;;
72201;SDS011;60105;54.956;73.412;2023-03-21T03:59:52;36.35;;;16.50;;
72201;SDS011;60105;54.956;73.412;2023-03-21T04:02:53;40.05;;;15.32;;
72201;SDS011;60105;54.956;73.412;2023-03-21T04:05:57;29.40;;;11.40;;
72201;SDS011;60105;54.956;73.412;2023-03-21T04:08:59;24.23;;;11.10;;
72201;SDS011;60105;54.956;73.412;2023-03-21T04:12:08;24.03;;;10.87;;
72201;SDS011;60105;54.956;73.412;2023-03-21T04:15:11;22.25;;;10.35;;
72201;SDS011;60105;54.956;73.412;2023-03-21T04:18:22;17.77;;;8.83;;
72201;SDS011;60105;54.956;73.412;2023-03-21T04:21:50;35.13;;;10.63;;
72201;SDS011;60105;54.956;73.412;2023-03-21T04:24:53;29.50;;;11.65;;
72201;SDS011;60105;54.956;73.412;2023-03-21T04:27:59;23.73;;;10.97;;
72201;SDS011;60105;54.956;73.412;2023-03-21T04:35:03;26.65;;;12.50;;
72201;SDS011;60105;54.956;73.412;2023-03-21T04:38:05;25.10;;;10.37;;
72201;SDS011;60105;54.956;73.412;2023-03-21T04:41:50;29.27;;;11.31;;
72201;SDS011;60105;54.956;73.412;2023-03-21T04:44:51;24.77;;;12.32;;
72201;SDS011;60105;54.956;73.412;2023-03-21T04:47:53;20.83;;;11.00;;
72201;SDS011;60105;54.956;73.412;2023-03-21T04:50:59;30.63;;;11.82;;
72201;SDS011;60105;54.956;73.412;2023-03-21T04:54:02;32.40;;;11.40;;
72201;SDS011;60105;54.956;73.412;2023-03-21T04:57:05;30.53;;;12.33;;
72201;SDS011;60105;54.956;73.412;2023-03-21T05:00:07;33.37;;;12.50;;
72201;SDS011;60105;54.956;73.412;2023-03-21T05:03:12;34.83;;;13.68;;
72201;SDS011;60105;54.956;73.412;2023-03-21T05:06:50;35.35;;;12.90;;
72201;SDS011;60105;54.956;73.412;2023-03-21T05:09:52;31.27;;;13.07;;
72201;SDS011;60105;54.956;73.412;2023-03-21T05:12:53;32.20;;;11.67;;
72201;SDS011;60105;54.956;73.412;2023-03-21T05:15:55;28.33;;;12.35;;
72201;SDS011;60105;54.956;73.412;2023-03-21T05:18:57;29.40;;;12.57;;
72201;SDS011;60105;54.956;73.412;2023-03-21T05:22:04;26.73;;;12.03;;
72201;SDS011;60105;54.956;73.412;2023-03-21T05:25:08;31.92;;;12.07;;
72201;SDS011;60105;54.956;73.412;2023-03-21T05:28:36;27.97;;;12.37;;
72201;SDS011;60105;54.956;73.412;2023-03-21T05:34:53;19.75;;;10.50;;
72201;SDS011;60105;54.956;73.412;2023-03-21T05:37:56;19.75;;;9.68;;
72201;SDS011;60105;54.956;73.412;2023-03-21T05:40:59;18.73;;;9.52;;
72201;SDS011;60105;54.956;73.412;2023-03-21T05:44:01;25.98;;;10.10;;
72201;SDS011;60105;54.956;73.412;2023-03-21T05:47:02;17.05;;;9.85;;
72201;SDS011;60105;54.956;73.412;2023-03-21T05:50:19;17.88;;;9.98;;
72201;SDS011;60105;54.956;73.412;2023-03-21T05:53:34;23.17;;;10.27;;
72201;SDS011;60105;54.956;73.412;2023-03-21T06:00:11;21.05;;;8.63;;
72201;SDS011;60105;54.956;73.412;2023-03-21T06:03:20;23.13;;;9.48;;
72201;SDS011;60105;54.956;73.412;2023-03-21T06:09:55;15.93;;;8.77;;
72201;SDS011;60105;54.956;73.412;2023-03-21T06:12:59;18.80;;;8.70;;
72201;SDS011;60105;54.956;73.412;2023-03-21T06:16:05;18.50;;;8.73;;
72201;SDS011;60105;54.956;73.412;2023-03-21T06:19:09;23.97;;;8.87;;
72201;SDS011;60105;54.956;73.412;2023-03-21T06:22:46;23.65;;;9.45;;
72201;SDS011;60105;54.956;73.412;2023-03-21T06:25:47;24.73;;;8.65;;
72201;SDS011;60105;54.956;73.412;2023-03-21T06:28:49;14.50;;;7.40;;
72201;SDS011;60105;54.956;73.412;2023-03-21T06:31:52;24.55;;;8.20;;
72201;SDS011;60105;54.956;73.412;2023-03-21T06:34:54;17.10;;;7.13;;
72201;SDS011;60105;54.956;73.412;2023-03-21T06:37:56;14.17;;;7.40;;
72201;SDS011;60105;54.956;73.412;2023-03-21T06:40:59;18.80;;;7.53;;
72201;SDS011;60105;54.956;73.412;2023-03-21T06:44:07;14.43;;;8.55;;
72201;SDS011;60105;54.956;73.412;2023-03-21T06:47:17;14.27;;;7.33;;
72201;SDS011;60105;54.956;73.412;2023-03-21T06:50:26;15.82;;;7.65;;
72201;SDS011;60105;54.956;73.412;2023-03-21T06:53:28;17.80;;;7.27;;
72201;SDS011;60105;54.956;73.412;2023-03-21T06:59:57;16.27;;;7.60;;
72201;SDS011;60105;54.956;73.412;2023-03-21T07:02:58;16.60;;;7.27;;
72201;SDS011;60105;54.956;73.412;2023-03-21T07:06:03;14.73;;;7.35;;
72201;SDS011;60105;54.956;73.412;2023-03-21T07:09:17;18.47;;;8.33;;
72201;SDS011;60105;54.956;73.412;2023-03-21T07:12:22;17.83;;;7.53;;
72201;SDS011;60105;54.956;73.412;2023-03-21T07:15:51;16.45;;;7.30;;
72201;SDS011;60105;54.956;73.412;2023-03-21T07:18:54;10.98;;;6.97;;
72201;SDS011;60105;54.956;73.412;2023-03-21T07:21:55;18.47;;;6.70;;
72201;SDS011;60105;54.956;73.412;2023-03-21T07:24:57;14.05;;;6.30;;
72201;SDS011;60105;54.956;73.412;2023-03-21T07:27:59;12.55;;;6.38;;
72201;SDS011;60105;54.956;73.412;2023-03-21T07:31:02;14.30;;;6.03;;
72201;SDS011;60105;54.956;73.412;2023-03-21T07:34:06;11.02;;;6.03;;
72201;SDS011;60105;54.956;73.412;2023-03-21T07:37:08;9.27;;;5.67;;
72201;SDS011;60105;54.956;73.412;2023-03-21T07:40:09;12.02;;;6.38;;
72201;SDS011;60105;54.956;73.412;2023-03-21T07:43:24;14.07;;;6.23;;
72201;SDS011;60105;54.956;73.412;2023-03-21T07:46:26;10.50;;;5.13;;
72201;SDS011;60105;54.956;73.412;2023-03-21T07:49:38;13.70;;;5.75;;
72201;SDS011;60105;54.956;73.412;2023-03-21T07:52:40;11.70;;;7.50;;
72201;SDS011;60105;54.956;73.412;2023-03-21T07:55:42;11.88;;;6.55;;
72201;SDS011;60105;54.956;73.412;2023-03-21T07:58:43;14.27;;;7.33;;
72201;SDS011;60105;54.956;73.412;2023-03-21T08:04:50;11.93;;;6.20;;
72201;SDS011;60105;54.956;73.412;2023-03-21T08:08:01;12.80;;;6.43;;
72201;SDS011;60105;54.956;73.412;2023-03-21T08:11:03;12.40;;;6.28;;
72201;SDS011;60105;54.956;73.412;2023-03-21T08:14:05;11.93;;;6.27;;
72201;SDS011;60105;54.956;73.412;2023-03-21T08:17:06;11.20;;;7.07;;
72201;SDS011;60105;54.956;73.412;2023-03-21T08:20:09;9.77;;;6.13;;
72201;SDS011;60105;54.956;73.412;2023-03-21T08:23:12;13.35;;;6.30;;
72201;SDS011;60105;54.956;73.412;2023-03-21T08:26:50;10.50;;;5.90;;
72201;SDS011;60105;54.956;73.412;2023-03-21T08:29:52;13.73;;;6.40;;
72201;SDS011;60105;54.956;73.412;2023-03-21T08:33:03;9.27;;;5.85;;
72201;SDS011;60105;54.956;73.412;2023-03-21T08:36:04;14.27;;;6.18;;
72201;SDS011;60105;54.956;73.412;2023-03-21T08:39:06;14.13;;;5.50;;
72201;SDS011;60105;54.956;73.412;2023-03-21T08:42:07;9.87;;;5.50;;
72201;SDS011;60105;54.956;73.412;2023-03-21T08:45:09;11.15;;;5.95;;
72201;SDS011;60105;54.956;73.412;2023-03-21T08:48:21;11.47;;;5.77;;
72201;SDS011;60105;54.956;73.412;2023-03-21T08:51:53;9.77;;;6.05;;
72201;SDS011;60105;54.956;73.412;2023-03-21T08:54:55;9.88;;;5.65;;
72201;SDS011;60105;54.956;73.412;2023-03-21T08:58:07;11.70;;;5.03;;
72201;SDS011;60105;54.956;73.412;2023-03-21T09:01:50;10.50;;;6.30;;
72201;SDS011;60105;54.956;73.412;2023-03-21T09:04:51;12.07;;;5.60;;
72201;SDS011;60105;54.956;73.412;2023-03-21T09:07:54;8.77;;;5.43;;
72201;SDS011;60105;54.956;73.412;2023-03-21T09:10:55;10.45;;;5.55;;
72201;SDS011;60105;54.956;73.412;2023-03-21T09:13:57;10.63;;;7.25;;
72201;SDS011;60105;54.956;73.412;2023-03-21T09:17:08;8.93;;;6.27;;
72201;SDS011;60105;54.956;73.412;2023-03-21T09:20:10;8.88;;;5.55;;
72201;SDS011;60105;54.956;73.412;2023-03-21T09:23:28;11.20;;;5.63;;
72201;SDS011;60105;54.956;73.412;2023-03-21T09:29:51;11.30;;;4.82;;
72201;SDS011;60105;54.956;73.412;2023-03-21T09:32:53;9.93;;;5.13;;
72201;SDS011;60105;54.956;73.412;2023-03-21T09:35:55;8.90;;;5.83;;
72201;SDS011;60105;54.956;73.412;2023-03-21T09:39:00;10.57;;;5.07;;
72201;SDS011;60105;54.956;73.412;2023-03-21T09:46:23;11.85;;;6.25;;
72201;SDS011;60105;54.956;73.412;2023-03-21T09:49:41;12.93;;;5.87;;
72201;SDS011;60105;54.956;73.412;2023-03-21T09:52:50;19.10;;;6.00;;
72201;SDS011;60105;54.956;73.412;2023-03-21T09:56:51;11.07;;;5.75;;
72201;SDS011;60105;54.956;73.412;2023-03-21T10:00:06;12.45;;;5.43;;
72201;SDS011;60105;54.956;73.412;2023-03-21T10:03:19;10.68;;;5.50;;
72201;SDS011;60105;54.956;73.412;2023-03-21T10:06:59;6.72;;;4.30;;
72201;SDS011;60105;54.956;73.412;2023-03-21T10:10:02;11.80;;;4.38;;
72201;SDS011;60105;54.956;73.412;2023-03-21T10:13:13;10.00;;;5.53;;
72201;SDS011;60105;54.956;73.412;2023-03-21T10:16:50;8.90;;;4.53;;
72201;SDS011;60105;54.956;73.412;2023-03-21T10:23:45;8.63;;;5.23;;
72201;SDS011;60105;54.956;73.412;2023-03-21T10:29:52;9.38;;;5.00;;
72201;SDS011;60105;54.956;73.412;2023-03-21T10:32:58;9.50;;;5.18;;
72201;SDS011;60105;54.956;73.412;2023-03-21T10:36:05;9.55;;;5.40;;
72201;SDS011;60105;54.956;73.412;2023-03-21T10:42:36;11.07;;;4.47;;
72201;SDS011;60105;54.956;73.412;2023-03-21T10:45:38;9.52;;;5.50;;
72201;SDS011;60105;54.956;73.412;2023-03-21T10:48:40;10.30;;;5.13;;
72201;SDS011;60105;54.956;73.412;2023-03-21T10:55:04;7.63;;;4.18;;
72201;SDS011;60105;54.956;73.412;2023-03-21T10:58:16;10.13;;;4.50;;
72201;SDS011;60105;54.956;73.412;2023-03-21T11:04:57;8.75;;;4.97;;
72201;SDS011;60105;54.956;73.412;2023-03-21T11:08:09;11.85;;;5.20;;
72201;SDS011;60105;54.956;73.412;2023-03-21T11:19:11;10.07;;;4.60;;
72201;SDS011;60105;54.956;73.412;2023-03-21T11:22:20;16.63;;;5.53;;
72201;SDS011;60105;54.956;73.412;2023-03-21T11:25:32;8.35;;;5.20;;
72201;SDS011;60105;54.956;73.412;2023-03-21T11:28:38;10.53;;;5.50;;
72201;SDS011;60105;54.956;73.412;2023-03-21T11:31:51;7.30;;;6.00;;
72201;SDS011;60105;54.956;73.412;2023-03-21T11:38:00;10.35;;;4.82;;
72201;SDS011;60105;54.956;73.412;2023-03-21T11:41:50;8.60;;;4.30;;
72201;SDS011;60105;54.956;73.412;2023-03-21T11:45:06;10.10;;;5.05;;
72201;SDS011;60105;54.956;73.412;2023-03-21T11:48:22;12.77;;;6.40;;
72201;SDS011;60105;54.956;73.412;2023-03-21T11:55:15;9.03;;;4.93;;
72201;SDS011;60105;54.956;73.412;2023-03-21T12:02:16;9.65;;;5.28;;
72201;SDS011;60105;54.956;73.412;2023-03-21T12:05:52;15.45;;;6.28;;
72201;SDS011;60105;54.956;73.412;2023-03-21T12:12:12;7.90;;;4.77;;
72201;SDS011;60105;54.956;73.412;2023-03-21T12:19:08;16.65;;;6.45;;
72201;SDS011;60105;54.956;73.412;2023-03-21T12:22:32;11.73;;;6.13;;
72201;SDS011;60105;54.956;73.412;2023-03-21T12:29:11;13.07;;;4.43;;
72201;SDS011;60105;54.956;73.412;2023-03-21T12:37:04;12.93;;;6.35;;
72201;SDS011;60105;54.956;73.412;2023-03-21T12:40:41;16.02;;;5.10;;
72201;SDS011;60105;54.956;73.412;2023-03-21T12:44:15;12.93;;;5.07;;
72201;SDS011;60105;54.956;73.412;2023-03-21T12:47:21;7.93;;;4.63;;
72201;SDS011;60105;54.956;73.412;2023-03-21T12:50:29;7.47;;;4.97;;
72201;SDS011;60105;54.956;73.412;2023-03-21T12:53:44;7.87;;;4.63;;
72201;SDS011;60105;54.956;73.412;2023-03-21T12:56:56;3.20;;;2.30;;
72201;SDS011;60105;54.956;73.412;2023-03-21T13:03:17;14.93;;;5.70;;
72201;SDS011;60105;54.956;73.412;2023-03-21T13:09:52;8.85;;;4.63;;
72201;SDS011;60105;54.956;73.412;2023-03-21T13:19:54;20.48;;;7.38;;
72201;SDS011;60105;54.956;73.412;2023-03-21T13:23:06;16.17;;;8.87;;
72201;SDS011;60105;54.956;73.412;2023-03-21T13:27:04;15.34;;;7.53;;
72201;SDS011;60105;54.956;73.412;2023-03-21T13:33:40;17.63;;;6.93;;
72201;SDS011;60105;54.956;73.412;2023-03-21T13:39:51;17.50;;;7.73;;
72201;SDS011;60105;54.956;73.412;2023-03-21T13:42:58;14.80;;;7.03;;
72201;SDS011;60105;54.956;73.412;2023-03-21T13:46:10;19.52;;;7.50;;
72201;SDS011;60105;54.956;73.412;2023-03-21T13:52:35;20.23;;;8.60;;
72201;SDS011;60105;54.956;73.412;2023-03-21T13:55:41;20.20;;;7.28;;
72201;SDS011;60105;54.956;73.412;2023-03-21T14:02:03;22.10;;;7.57;;
72201;SDS011;60105;54.956;73.412;2023-03-21T14:05:34;21.80;;;9.30;;
72201;SDS011;60105;54.956;73.412;2023-03-21T14:08:36;23.58;;;9.75;;
72201;SDS011;60105;54.956;73.412;2023-03-21T14:14:53;18.55;;;8.48;;
72201;SDS011;60105;54.956;73.412;2023-03-21T14:18:00;16.77;;;7.90;;
72201;SDS011;60105;54.956;73.412;2023-03-21T14:21:03;12.82;;;6.90;;
72201;SDS011;60105;54.956;73.412;2023-03-21T14:24:11;18.10;;;8.07;;
72201;SDS011;60105;54.956;73.412;2023-03-21T14:27:23;15.80;;;8.20;;
72201;SDS011;60105;54.956;73.412;2023-03-21T14:30:30;20.97;;;8.70;;
72201;SDS011;60105;54.956;73.412;2023-03-21T14:33:35;20.53;;;9.87;;
72201;SDS011;60105;54.956;73.412;2023-03-21T14:39:55;16.75;;;7.32;;
72201;SDS011;60105;54.956;73.412;2023-03-21T14:43:02;21.38;;;8.95;;
72201;SDS011;60105;54.956;73.412;2023-03-21T14:46:18;15.49;;;6.84;;
72201;SDS011;60105;54.956;73.412;2023-03-21T14:49:23;19.45;;;7.68;;
72201;SDS011;60105;54.956;73.412;2023-03-21T14:52:32;21.17;;;8.20;;
72201;SDS011;60105;54.956;73.412;2023-03-21T14:55:56;17.52;;;8.10;;
72201;SDS011;60105;54.956;73.412;2023-03-21T14:59:04;21.27;;;8.30;;
72201;SDS011;60105;54.956;73.412;2023-03-21T15:02:18;15.30;;;6.90;;
72201;SDS011;60105;54.956;73.412;2023-03-21T15:05:24;18.63;;;8.80;;
72201;SDS011;60105;54.956;73.412;2023-03-21T15:08:51;12.83;;;6.57;;
72201;SDS011;60105;54.956;73.412;2023-03-21T15:11:57;15.88;;;6.22;;
72201;SDS011;60105;54.956;73.412;2023-03-21T15:14:59;25.47;;;8.10;;
72201;SDS011;60105;54.956;73.412;2023-03-21T15:18:05;14.93;;;6.70;;
72201;SDS011;60105;54.956;73.412;2023-03-21T15:21:52;13.03;;;6.05;;
72201;SDS011;60105;54.956;73.412;2023-03-21T15:24:58;13.27;;;7.05;;
72201;SDS011;60105;54.956;73.412;2023-03-21T15:28:05;15.27;;;6.00;;
72201;SDS011;60105;54.956;73.412;2023-03-21T15:31:50;10.79;;;6.34;;
72201;SDS011;60105;54.956;73.412;2023-03-21T15:35:06;16.90;;;6.75;;
72201;SDS011;60105;54.956;73.412;2023-03-21T15:38:27;12.63;;;6.33;;
72201;SDS011;60105;54.956;73.412;2023-03-21T15:45:00;17.63;;;7.45;;
72201;SDS011;60105;54.956;73.412;2023-03-21T15:48:13;14.82;;;6.10;;
72201;SDS011;60105;54.956;73.412;2023-03-21T15:51:57;17.60;;;5.35;;
72201;SDS011;60105;54.956;73.412;2023-03-21T15:55:15;11.75;;;6.97;;
72201;SDS011;60105;54.956;73.412;2023-03-21T15:58:22;13.20;;;6.85;;
72201;SDS011;60105;54.956;73.412;2023-03-21T16:08:21;9.63;;;6.23;;
72201;SDS011;60105;54.956;73.412;2023-03-21T16:14:52;16.20;;;7.75;;
72201;SDS011;60105;54.956;73.412;2023-03-21T16:17:55;16.85;;;6.88;;
72201;SDS011;60105;54.956;73.412;2023-03-21T16:20:59;11.15;;;6.75;;
72201;SDS011;60105;54.956;73.412;2023-03-21T16:24:00;11.63;;;7.32;;
72201;SDS011;60105;54.956;73.412;2023-03-21T16:27:02;18.97;;;6.07;;
72201;SDS011;60105;54.956;73.412;2023-03-21T16:30:03;15.57;;;6.88;;
72201;SDS011;60105;54.956;73.412;2023-03-21T16:33:10;14.73;;;7.55;;
72201;SDS011;60105;54.956;73.412;2023-03-21T16:36:49;15.60;;;6.63;;
72201;SDS011;60105;54.956;73.412;2023-03-21T16:39:50;25.90;;;9.85;;
72201;SDS011;60105;54.956;73.412;2023-03-21T16:42:51;16.50;;;7.40;;
72201;SDS011;60105;54.956;73.412;2023-03-21T16:45:53;16.67;;;7.53;;
72201;SDS011;60105;54.956;73.412;2023-03-21T16:48:55;16.37;;;6.57;;
72201;SDS011;60105;54.956;73.412;2023-03-21T16:52:02;16.23;;;6.68;;
72201;SDS011;60105;54.956;73.412;2023-03-21T16:55:04;11.40;;;5.85;;
72201;SDS011;60105;54.956;73.412;2023-03-21T16:58:05;13.82;;;6.28;;
72201;SDS011;60105;54.956;73.412;2023-03-21T17:01:50;17.46;;;6.35;;
72201;SDS011;60105;54.956;73.412;2023-03-21T17:04:51;14.35;;;5.45;;
72201;SDS011;60105;54.956;73.412;2023-03-21T17:08:00;17.08;;;6.78;;
72201;SDS011;60105;54.956;73.412;2023-03-21T17:11:02;17.15;;;6.78;;
72201;SDS011;60105;54.956;73.412;2023-03-21T17:14:06;13.70;;;6.07;;
72201;SDS011;60105;54.956;73.412;2023-03-21T17:17:14;13.65;;;7.00;;
72201;SDS011;60105;54.956;73.412;2023-03-21T17:20:18;10.77;;;6.63;;
72201;SDS011;60105;54.956;73.412;2023-03-21T17:23:34;13.38;;;6.45;;
72201;SDS011;60105;54.956;73.412;2023-03-21T17:29:52;13.50;;;6.03;;
72201;SDS011;60105;54.956;73.412;2023-03-21T17:32:53;9.40;;;5.33;;
72201;SDS011;60105;54.956;73.412;2023-03-21T17:35:55;12.65;;;6.55;;
72201;SDS011;60105;54.956;73.412;2023-03-21T17:38:56;12.90;;;6.07;;
72201;SDS011;60105;54.956;73.412;2023-03-21T17:41:58;18.47;;;5.90;;
72201;SDS011;60105;54.956;73.412;2023-03-21T17:44:59;12.50;;;5.85;;
72201;SDS011;60105;54.956;73.412;2023-03-21T17:48:00;11.70;;;6.23;;
72201;SDS011;60105;54.956;73.412;2023-03-21T17:51:02;10.38;;;5.03;;
72201;SDS011;60105;54.956;73.412;2023-03-21T17:54:03;12.68;;;5.55;;
72201;SDS011;60105;54.956;73.412;2023-03-21T17:57:07;10.33;;;5.17;;
72201;SDS011;60105;54.956;73.412;2023-03-21T18:00:15;9.77;;;5.40;;
72201;SDS011;60105;54.956;73.412;2023-03-21T18:03:30;11.45;;;4.47;;
72201;SDS011;60105;54.956;73.412;2023-03-21T18:09:51;14.43;;;4.65;;
72201;SDS011;60105;54.956;73.412;2023-03-21T18:12:52;14.57;;;5.00;;
72201;SDS011;60105;54.956;73.412;2023-03-21T18:15:56;12.00;;;6.03;;
72201;SDS011;60105;54.956;73.412;2023-03-21T18:18:58;14.90;;;5.80;;
72201;SDS011;60105;54.956;73.412;2023-03-21T18:21:59;6.82;;;4.65;;
72201;SDS011;60105;54.956;73.412;2023-03-21T18:25:01;11.02;;;4.85;;
72201;SDS011;60105;54.956;73.412;2023-03-21T18:28:03;13.05;;;5.75;;
72201;SDS011;60105;54.956;73.412;2023-03-21T18:31:05;13.73;;;6.90;;
72201;SDS011;60105;54.956;73.412;2023-03-21T18:34:08;12.93;;;6.25;;
72201;SDS011;60105;54.956;73.412;2023-03-21T18:37:20;15.00;;;7.20;;
72201;SDS011;60105;54.956;73.412;2023-03-21T18:40:31;14.63;;;7.05;;
72201;SDS011;60105;54.956;73.412;2023-03-21T18:43:33;14.70;;;7.28;;
72201;SDS011;60105;54.956;73.412;2023-03-21T18:46:36;19.90;;;6.68;;
72201;SDS011;60105;54.956;73.412;2023-03-21T18:49:40;14.23;;;7.28;;
72201;SDS011;60105;54.956;73.412;2023-03-21T18:52:46;11.77;;;5.57;;
72201;SDS011;60105;54.956;73.412;2023-03-21T18:55:48;12.05;;;7.03;;
72201;SDS011;60105;54.956;73.412;2023-03-21T18:58:49;11.83;;;6.30;;
72201;SDS011;60105;54.956;73.412;2023-03-21T19:01:50;4.50;;;2.60;;
72201;SDS011;60105;54.956;73.412;2023-03-21T19:04:52;13.75;;;5.97;;
72201;SDS011;60105;54.956;73.412;2023-03-21T19:07:53;14.17;;;6.03;;
72201;SDS011;60105;54.956;73.412;2023-03-21T19:10:55;11.30;;;6.70;;
72201;SDS011;60105;54.956;73.412;2023-03-21T19:13:56;15.60;;;6.03;;
72201;SDS011;60105;54.956;73.412;2023-03-21T19:16:57;17.63;;;7.07;;
72201;SDS011;60105;54.956;73.412;2023-03-21T19:19:59;8.90;;;6.28;;
72201;SDS011;60105;54.956;73.412;2023-03-21T19:23:00;9.15;;;5.38;;
72201;SDS011;60105;54.956;73.412;2023-03-21T19:26:03;10.27;;;6.55;;
72201;SDS011;60105;54.956;73.412;2023-03-21T19:29:04;9.13;;;5.35;;
72201;SDS011;60105;54.956;73.412;2023-03-21T19:32:06;9.13;;;5.13;;
72201;SDS011;60105;54.956;73.412;2023-03-21T19:35:08;9.40;;;4.90;;
72201;SDS011;60105;54.956;73.412;2023-03-21T19:38:09;13.50;;;5.50;;
72201;SDS011;60105;54.956;73.412;2023-03-21T19:41:50;11.00;;;5.43;;
72201;SDS011;60105;54.956;73.412;2023-03-21T19:44:52;9.65;;;5.53;;
72201;SDS011;60105;54.956;73.412;2023-03-21T19:47:53;12.70;;;5.85;;
72201;SDS011;60105;54.956;73.412;2023-03-21T19:50:54;9.93;;;5.40;;
72201;SDS011;60105;54.956;73.412;2023-03-21T19:54:02;11.17;;;5.57;;
72201;SDS011;60105;54.956;73.412;2023-03-21T19:57:11;13.35;;;5.50;;
72201;SDS011;60105;54.956;73.412;2023-03-21T20:00:12;12.90;;;6.03;;
72201;SDS011;60105;54.956;73.412;2023-03-21T20:03:25;16.08;;;5.50;;
72201;SDS011;60105;54.956;73.412;2023-03-21T20:09:54;13.40;;;5.63;;
72201;SDS011;60105;54.956;73.412;2023-03-21T20:13:05;8.83;;;4.73;;
72201;SDS011;60105;54.956;73.412;2023-03-21T20:16:18;14.43;;;4.20;;
72201;SDS011;60105;54.956;73.412;2023-03-21T20:19:19;10.50;;;4.82;;
72201;SDS011;60105;54.956;73.412;2023-03-21T20:22:23;8.97;;;5.20;;
72201;SDS011;60105;54.956;73.412;2023-03-21T20:25:24;11.93;;;4.20;;
72201;SDS011;60105;54.956;73.412;2023-03-21T20:28:26;8.60;;;4.40;;
72201;SDS011;60105;54.956;73.412;2023-03-21T20:34:52;11.63;;;4.43;;
72201;SDS011;60105;54.956;73.412;2023-03-21T20:38:01;14.33;;;4.53;;
72201;SDS011;60105;54.956;73.412;2023-03-21T20:41:03;12.50;;;5.43;;
72201;SDS011;60105;54.956;73.412;2023-03-21T20:44:05;9.40;;;4.67;;
72201;SDS011;60105;54.956;73.412;2023-03-21T20:47:18;8.48;;;4.90;;
72201;SDS011;60105;54.956;73.412;2023-03-21T20:50:29;8.95;;;4.82;;
72201;SDS011;60105;54.956;73.412;2023-03-21T20:53:32;9.33;;;4.13;;
72201;SDS011;60105;54.956;73.412;2023-03-21T20:59:55;12.55;;;4.00;;
72201;SDS011;60105;54.956;73.412;2023-03-21T21:02:57;6.80;;;4.03;;
72201;SDS011;60105;54.956;73.412;2023-03-21T21:06:49;8.45;;;4.40;;
72201;SDS011;60105;54.956;73.412;2023-03-21T21:09:52;12.13;;;6.32;;
72201;SDS011;60105;54.956;73.412;2023-03-21T21:12:58;13.17;;;5.67;;
72201;SDS011;60105;54.956;73.412;2023-03-21T21:15:59;7.47;;;4.90;;
72201;SDS011;60105;54.956;73.412;2023-03-21T21:19:07;7.03;;;4.00;;
72201;SDS011;60105;54.956;73.412;2023-03-21T21:22:09;7.60;;;4.03;;